createdAt,value
2017-06-29T00:00:54.473Z,2.10
2017-06-29T00:03:21.900Z,2.00
2017-06-29T00:05:49.315Z,2.13
2017-06-29T00:08:16.770Z,2.63
2017-06-29T00:10:44.190Z,1.70
2017-06-29T00:13:11.590Z,2.17
2017-06-29T00:15:39.033Z,1.53
2017-06-29T00:18:06.470Z,2.47
2017-06-29T00:20:33.920Z,1.40
2017-06-29T00:23:01.357Z,1.90
2017-06-29T00:25:28.821Z,2.00
2017-06-29T00:27:56.250Z,1.47
2017-06-29T00:30:23.662Z,2.00
2017-06-29T00:32:51.110Z,1.67
2017-06-29T00:35:18.522Z,2.20
2017-06-29T00:37:45.925Z,2.40
2017-06-29T00:40:13.363Z,1.93
2017-06-29T00:42:40.897Z,1.50
2017-06-29T00:45:08.430Z,1.50
2017-06-29T00:47:35.877Z,1.43
2017-06-29T00:50:03.307Z,1.50
2017-06-29T00:52:30.735Z,1.97
2017-06-29T00:54:58.178Z,1.87
2017-06-29T00:57:25.611Z,1.47
2017-06-29T00:59:53.031Z,1.80
2017-06-29T01:02:24.391Z,1.27
2017-06-29T01:04:51.832Z,1.30
2017-06-29T01:07:19.235Z,1.93
2017-06-29T01:09:46.675Z,1.20
2017-06-29T01:12:14.113Z,1.70
2017-06-29T01:14:41.544Z,1.63
2017-06-29T01:17:08.967Z,1.20
2017-06-29T01:19:36.427Z,1.50
2017-06-29T01:22:03.841Z,1.67
2017-06-29T01:24:31.289Z,1.70
2017-06-29T01:26:58.718Z,1.73
2017-06-29T01:29:26.185Z,1.67
2017-06-29T01:31:53.646Z,1.73
2017-06-29T01:34:21.056Z,1.97
2017-06-29T01:36:49.419Z,1.50
2017-06-29T01:39:16.849Z,1.30
2017-06-29T01:41:44.277Z,1.50
2017-06-29T01:44:11.704Z,1.50
2017-06-29T01:46:39.120Z,1.33
2017-06-29T01:49:06.555Z,1.13
2017-06-29T01:51:33.983Z,1.97
2017-06-29T01:54:01.396Z,1.47
2017-06-29T01:56:28.871Z,1.40
2017-06-29T01:58:56.306Z,1.20
2017-06-29T02:01:23.708Z,1.70
2017-06-29T02:03:51.144Z,1.10
2017-06-29T02:06:18.553Z,1.30
2017-06-29T02:08:46.013Z,1.40
2017-06-29T02:11:13.419Z,1.70
2017-06-29T02:13:40.868Z,1.70
2017-06-29T02:16:08.309Z,1.70
2017-06-29T02:18:35.711Z,1.57
2017-06-29T02:21:03.276Z,1.33
2017-06-29T02:23:30.710Z,1.57
2017-06-29T02:25:58.118Z,1.67
2017-06-29T02:28:25.568Z,1.30
2017-06-29T02:30:52.974Z,2.00
2017-06-29T02:33:20.371Z,1.77
2017-06-29T02:35:47.817Z,1.47
2017-06-29T02:38:15.218Z,1.40
2017-06-29T02:40:42.636Z,1.50
2017-06-29T02:43:10.059Z,1.80
2017-06-29T02:45:37.491Z,1.80
2017-06-29T02:48:04.964Z,1.60
2017-06-29T02:50:32.373Z,1.67
2017-06-29T02:52:59.844Z,1.33
2017-06-29T02:55:27.267Z,1.10
2017-06-29T02:57:54.678Z,1.87
2017-06-29T03:00:22.148Z,1.50
2017-06-29T03:02:49.580Z,1.83
2017-06-29T03:05:17.005Z,1.67
2017-06-29T03:07:44.443Z,1.40
2017-06-29T03:10:11.844Z,1.70
2017-06-29T03:12:39.311Z,1.40
2017-06-29T03:15:06.769Z,1.90
2017-06-29T03:17:34.278Z,1.47
2017-06-29T03:20:01.890Z,1.70
2017-06-29T03:22:29.431Z,1.50
2017-06-29T03:24:56.858Z,2.10
2017-06-29T03:27:24.290Z,1.90
2017-06-29T03:29:51.721Z,1.60
2017-06-29T03:32:19.129Z,1.90
2017-06-29T03:34:46.585Z,1.60
2017-06-29T03:37:13.991Z,1.50
2017-06-29T03:39:41.445Z,1.70
2017-06-29T03:42:08.879Z,2.23
2017-06-29T03:44:36.327Z,1.50
2017-06-29T03:47:03.764Z,1.60
2017-06-29T03:49:31.192Z,1.60
2017-06-29T03:51:58.659Z,1.30
2017-06-29T03:54:26.143Z,1.90
2017-06-29T03:56:53.621Z,1.63
2017-06-29T03:59:21.052Z,1.53
2017-06-29T04:01:48.492Z,2.03
2017-06-29T04:04:15.925Z,1.73
2017-06-29T04:06:43.332Z,2.00
2017-06-29T04:09:11.160Z,1.70
2017-06-29T04:11:38.597Z,2.10
2017-06-29T04:14:06.007Z,2.20
2017-06-29T04:16:33.504Z,2.10
2017-06-29T04:19:00.909Z,1.50
2017-06-29T04:21:28.367Z,1.63
2017-06-29T04:23:55.824Z,2.30
2017-06-29T04:26:23.287Z,1.67
2017-06-29T04:28:50.747Z,2.90
2017-06-29T04:31:18.181Z,2.67
2017-06-29T04:33:45.608Z,1.70
2017-06-29T04:36:13.057Z,1.90
2017-06-29T04:38:40.460Z,1.47
2017-06-29T04:41:07.876Z,1.60
2017-06-29T04:43:35.317Z,1.70
2017-06-29T04:46:02.752Z,1.67
2017-06-29T04:48:30.188Z,1.70
2017-06-29T04:50:57.608Z,1.90
2017-06-29T04:53:25.095Z,1.80
2017-06-29T04:55:52.530Z,1.97
2017-06-29T04:58:19.931Z,3.00
2017-06-29T05:00:47.452Z,1.93
2017-06-29T05:03:14.880Z,1.83
2017-06-29T05:05:42.453Z,1.70
2017-06-29T05:08:09.952Z,1.70
2017-06-29T05:10:37.360Z,1.97
2017-06-29T05:13:04.834Z,1.70
2017-06-29T05:15:32.292Z,1.97
2017-06-29T05:17:59.712Z,2.30
2017-06-29T05:20:27.138Z,1.90
2017-06-29T05:22:54.647Z,1.83
2017-06-29T05:25:22.128Z,1.80
2017-06-29T05:27:49.688Z,2.10
2017-06-29T05:30:17.160Z,1.70
2017-06-29T05:32:44.564Z,2.20
2017-06-29T05:35:12.042Z,1.87
2017-06-29T05:37:39.450Z,1.90
2017-06-29T05:40:06.953Z,2.20
2017-06-29T05:42:34.407Z,2.20
2017-06-29T05:45:02.799Z,2.00
2017-06-29T05:47:30.247Z,1.87
2017-06-29T05:49:57.659Z,2.10
2017-06-29T05:52:25.071Z,2.10
2017-06-29T05:54:52.515Z,2.03
2017-06-29T05:57:19.944Z,2.20
2017-06-29T05:59:47.353Z,2.40
2017-06-29T06:02:14.875Z,1.83
2017-06-29T06:04:42.279Z,2.30
2017-06-29T06:07:09.722Z,2.10
2017-06-29T06:09:37.144Z,2.30
2017-06-29T06:12:04.582Z,2.23
2017-06-29T06:14:31.988Z,1.83
2017-06-29T06:16:59.399Z,1.97
2017-06-29T06:19:26.865Z,2.30
2017-06-29T06:21:54.308Z,2.67
2017-06-29T06:24:21.739Z,2.10
2017-06-29T06:26:49.149Z,2.30
2017-06-29T06:29:16.590Z,1.90
2017-06-29T06:31:44.027Z,1.70
2017-06-29T06:34:11.440Z,1.87
2017-06-29T06:36:38.900Z,1.80
2017-06-29T06:39:06.339Z,1.80
2017-06-29T06:41:33.757Z,1.90
2017-06-29T06:44:01.187Z,1.80
2017-06-29T06:46:28.694Z,1.90
2017-06-29T06:48:56.106Z,1.73
2017-06-29T06:51:23.902Z,1.53
2017-06-29T06:53:51.308Z,2.10
2017-06-29T06:56:18.744Z,2.13
2017-06-29T06:58:46.154Z,1.93
2017-06-29T07:01:13.589Z,1.60
2017-06-29T07:03:41.001Z,1.67
2017-06-29T07:06:08.441Z,1.60
2017-06-29T07:08:35.859Z,1.70
2017-06-29T07:11:03.361Z,1.93
2017-06-29T07:13:30.766Z,1.60
2017-06-29T07:15:58.201Z,1.73
2017-06-29T07:18:25.636Z,1.70
2017-06-29T07:20:53.070Z,1.90
2017-06-29T07:23:20.472Z,1.73
2017-06-29T07:25:47.920Z,2.27
2017-06-29T07:28:15.315Z,1.97
2017-06-29T07:30:42.743Z,2.07
2017-06-29T07:33:10.181Z,2.03
2017-06-29T07:35:37.636Z,1.70
2017-06-29T07:38:05.151Z,1.80
2017-06-29T07:40:32.675Z,2.07
2017-06-29T07:43:00.079Z,2.00
2017-06-29T07:45:27.507Z,2.50
2017-06-29T07:47:54.968Z,2.03
2017-06-29T07:50:22.387Z,1.90
2017-06-29T07:52:49.795Z,1.97
2017-06-29T07:55:17.308Z,2.13
2017-06-29T07:57:44.792Z,2.50
2017-06-29T08:00:12.215Z,1.90
2017-06-29T08:02:39.711Z,1.90
2017-06-29T08:05:07.135Z,1.97
2017-06-29T08:07:34.624Z,1.70
2017-06-29T08:10:02.028Z,1.90
2017-06-29T08:12:29.648Z,1.53
2017-06-29T08:14:57.106Z,1.93
2017-06-29T08:17:24.560Z,2.07
2017-06-29T08:19:52.004Z,2.20
2017-06-29T08:22:19.447Z,2.13
2017-06-29T08:24:46.887Z,2.10
2017-06-29T08:27:14.329Z,2.23
2017-06-29T08:29:41.749Z,1.90
2017-06-29T08:32:09.291Z,2.20
2017-06-29T08:34:36.742Z,2.07
2017-06-29T08:37:04.301Z,1.90
2017-06-29T08:39:31.715Z,1.90
2017-06-29T08:41:59.155Z,2.17
2017-06-29T08:44:26.571Z,1.90
2017-06-29T08:46:54.022Z,1.93
2017-06-29T08:49:21.567Z,2.00
2017-06-29T08:51:49.019Z,2.40
2017-06-29T08:54:16.439Z,2.50
2017-06-29T08:56:43.870Z,2.17
2017-06-29T08:59:11.318Z,1.80
2017-06-29T09:01:38.764Z,2.10
2017-06-29T09:04:06.195Z,2.20
2017-06-29T09:06:33.640Z,1.80
2017-06-29T09:09:01.057Z,2.03
2017-06-29T09:11:28.508Z,2.13
2017-06-29T09:13:55.975Z,1.70
2017-06-29T09:16:23.412Z,1.87
2017-06-29T09:18:50.861Z,2.30
2017-06-29T09:21:18.268Z,2.70
2017-06-29T09:23:45.745Z,2.50
2017-06-29T09:26:13.151Z,1.87
2017-06-29T09:28:40.590Z,2.10
2017-06-29T09:31:08.039Z,2.03
2017-06-29T09:33:35.435Z,2.10
2017-06-29T09:36:02.995Z,2.10
2017-06-29T09:38:30.406Z,1.90
2017-06-29T09:40:57.920Z,1.90
2017-06-29T09:43:25.331Z,2.20
2017-06-29T09:45:52.790Z,2.27
2017-06-29T09:48:20.217Z,2.00
2017-06-29T09:50:47.670Z,2.40
2017-06-29T09:53:15.139Z,2.10
2017-06-29T09:55:42.593Z,2.10
2017-06-29T09:58:10.072Z,1.90
2017-06-29T10:00:37.543Z,2.50
2017-06-29T10:03:04.987Z,2.20
2017-06-29T10:05:32.431Z,2.17
2017-06-29T10:07:59.852Z,2.03
2017-06-29T10:10:27.381Z,2.17
2017-06-29T10:12:54.797Z,2.30
2017-06-29T10:15:22.374Z,1.63
2017-06-29T10:17:49.798Z,2.83
2017-06-29T10:20:17.248Z,2.00
2017-06-29T10:22:44.664Z,2.00
2017-06-29T10:25:12.068Z,1.60
2017-06-29T10:27:39.522Z,1.90
2017-06-29T10:30:06.923Z,1.73
2017-06-29T10:32:34.327Z,1.80
2017-06-29T10:35:01.759Z,1.87
2017-06-29T10:37:29.211Z,1.60
2017-06-29T10:39:56.895Z,1.80
2017-06-29T10:42:24.295Z,1.70
2017-06-29T10:44:51.732Z,1.90
2017-06-29T10:47:19.195Z,2.47
2017-06-29T10:49:46.607Z,1.57
2017-06-29T10:52:14.687Z,1.70
2017-06-29T10:54:42.124Z,1.47
2017-06-29T10:57:09.562Z,2.00
2017-06-29T10:59:37.020Z,1.70
2017-06-29T11:02:04.462Z,1.73
2017-06-29T11:04:31.928Z,1.87
2017-06-29T11:06:59.504Z,1.60
2017-06-29T11:09:26.975Z,1.67
2017-06-29T11:11:54.388Z,1.90
2017-06-29T11:14:21.884Z,1.60
2017-06-29T11:16:49.291Z,1.80
2017-06-29T11:19:16.693Z,1.70
2017-06-29T11:21:44.143Z,1.67
2017-06-29T11:24:11.559Z,1.60
2017-06-29T11:26:38.969Z,1.40
2017-06-29T11:29:06.408Z,1.87
2017-06-29T11:31:33.831Z,1.50
2017-06-29T11:34:01.270Z,1.63
2017-06-29T11:36:28.680Z,1.40
2017-06-29T11:38:56.124Z,1.63
2017-06-29T11:41:23.531Z,1.57
2017-06-29T11:43:51.100Z,1.70
2017-06-29T11:46:18.542Z,1.47
2017-06-29T11:48:45.939Z,1.57
2017-06-29T11:51:13.440Z,1.23
2017-06-29T11:53:40.912Z,1.20
2017-06-29T11:56:08.331Z,1.37
2017-06-29T11:58:35.750Z,1.67
2017-06-29T12:01:03.192Z,1.40
2017-06-29T12:03:30.621Z,1.40
2017-06-29T12:05:58.039Z,1.30
2017-06-29T12:08:25.483Z,1.30
2017-06-29T12:10:52.904Z,1.70
2017-06-29T12:13:20.536Z,1.63
2017-06-29T12:15:47.957Z,1.80
2017-06-29T12:18:15.363Z,1.57
2017-06-29T12:20:42.799Z,1.30
2017-06-29T12:23:10.204Z,1.40
2017-06-29T12:25:37.641Z,1.30
2017-06-29T12:28:05.047Z,1.50
2017-06-29T12:30:32.540Z,1.27
2017-06-29T12:32:59.979Z,1.60
2017-06-29T12:35:27.560Z,1.50
2017-06-29T12:37:54.995Z,1.30
2017-06-29T12:40:22.401Z,1.20
2017-06-29T12:42:49.836Z,1.60
2017-06-29T12:45:17.272Z,0.93
2017-06-29T12:47:44.684Z,1.00
2017-06-29T12:50:12.160Z,0.80
2017-06-29T12:52:39.584Z,1.00
2017-06-29T12:55:06.995Z,1.10
2017-06-29T12:57:34.565Z,0.97
2017-06-29T13:00:02.126Z,1.00
2017-06-29T13:02:29.618Z,1.00
2017-06-29T13:04:57.052Z,0.80
2017-06-29T13:07:24.462Z,0.93
2017-06-29T13:09:51.909Z,1.03
2017-06-29T13:12:19.357Z,1.17
2017-06-29T13:14:46.849Z,1.00
2017-06-29T13:17:14.299Z,1.00
2017-06-29T13:19:41.717Z,1.00
2017-06-29T13:22:09.146Z,1.00
2017-06-29T13:24:36.559Z,0.77
2017-06-29T13:27:04.000Z,0.70
2017-06-29T13:29:31.398Z,1.13
2017-06-29T13:31:58.809Z,0.70
2017-06-29T13:34:26.276Z,0.83
2017-06-29T13:36:53.726Z,0.70
2017-06-29T13:39:21.168Z,0.70
2017-06-29T13:41:48.595Z,0.73
2017-06-29T13:44:16.091Z,0.77
2017-06-29T13:46:43.511Z,0.60
2017-06-29T13:49:10.951Z,1.10
2017-06-29T13:51:38.379Z,0.60
2017-06-29T13:54:05.816Z,0.80
2017-06-29T13:56:33.237Z,0.70
2017-06-29T13:59:00.674Z,0.70
2017-06-29T14:01:28.080Z,0.70
2017-06-29T14:03:55.569Z,0.70
2017-06-29T14:06:22.997Z,1.00
2017-06-29T14:08:50.449Z,0.70
2017-06-29T14:11:17.855Z,0.80
2017-06-29T14:13:45.283Z,0.87
2017-06-29T14:16:12.785Z,0.63
2017-06-29T14:18:40.335Z,0.80
2017-06-29T14:21:07.746Z,0.90
2017-06-29T14:23:35.184Z,0.90
2017-06-29T14:26:02.634Z,0.70
2017-06-29T14:28:30.111Z,0.90
2017-06-29T14:30:57.551Z,0.70
2017-06-29T14:33:25.010Z,0.70
2017-06-29T14:35:52.473Z,0.63
2017-06-29T14:38:19.871Z,0.80
2017-06-29T14:40:47.799Z,0.70
2017-06-29T14:43:15.269Z,0.60
2017-06-29T14:45:42.852Z,1.00
2017-06-29T14:48:10.279Z,1.07
2017-06-29T14:50:37.687Z,0.63
2017-06-29T14:53:05.116Z,0.70
2017-06-29T14:55:32.519Z,0.60
2017-06-29T14:57:59.980Z,0.70
2017-06-29T15:00:27.400Z,0.80
2017-06-29T15:02:54.824Z,0.80
2017-06-29T15:05:22.279Z,0.90
2017-06-29T15:07:49.698Z,0.90
2017-06-29T15:10:17.132Z,0.93
2017-06-29T15:12:44.550Z,0.90
2017-06-29T15:15:12.013Z,0.93
2017-06-29T15:17:39.431Z,0.93
2017-06-29T15:20:06.843Z,0.97
2017-06-29T15:22:34.291Z,0.93
2017-06-29T15:25:01.696Z,1.00
2017-06-29T15:27:29.102Z,1.00
2017-06-29T15:29:56.636Z,1.03
2017-06-29T15:32:24.183Z,1.40
2017-06-29T15:34:51.634Z,0.90
2017-06-29T15:37:19.039Z,0.83
2017-06-29T15:39:46.477Z,0.70
2017-06-29T15:42:13.899Z,0.67
2017-06-29T15:44:41.336Z,1.07
2017-06-29T15:47:08.772Z,0.90
2017-06-29T15:49:36.311Z,0.80
2017-06-29T15:52:03.767Z,0.80
2017-06-29T15:54:31.173Z,1.37
2017-06-29T15:56:58.633Z,0.93
2017-06-29T15:59:26.038Z,0.70
2017-06-29T16:01:53.556Z,0.97
2017-06-29T16:04:20.987Z,0.87
2017-06-29T16:06:48.496Z,0.90
2017-06-29T16:09:16.052Z,0.90
2017-06-29T16:11:43.515Z,1.00
2017-06-29T16:14:11.024Z,0.90
2017-06-29T16:16:38.569Z,0.80
2017-06-29T16:19:05.987Z,0.80
2017-06-29T16:21:33.464Z,1.07
2017-06-29T16:24:00.922Z,1.00
2017-06-29T16:26:28.375Z,0.80
2017-06-29T16:28:55.805Z,0.80
2017-06-29T16:31:23.259Z,0.83
2017-06-29T16:33:51.299Z,0.80
2017-06-29T16:36:18.726Z,1.10
2017-06-29T16:38:46.159Z,0.73
2017-06-29T16:41:13.595Z,1.00
2017-06-29T16:43:41.004Z,1.13
2017-06-29T16:46:08.436Z,0.83
2017-06-29T16:48:35.839Z,0.87
2017-06-29T16:51:03.291Z,0.87
2017-06-29T16:53:30.739Z,0.80
2017-06-29T16:55:58.154Z,0.80
2017-06-29T16:58:25.558Z,1.10
2017-06-29T17:00:53.047Z,0.70
2017-06-29T17:03:20.487Z,0.80
2017-06-29T17:05:47.900Z,0.70
2017-06-29T17:08:15.448Z,0.90
2017-06-29T17:10:43.135Z,1.00
2017-06-29T17:13:10.576Z,0.90
2017-06-29T17:15:38.334Z,0.80
2017-06-29T17:18:05.738Z,0.80
2017-06-29T17:20:33.187Z,0.87
2017-06-29T17:23:00.585Z,0.90
2017-06-29T17:25:28.053Z,0.90
2017-06-29T17:27:55.488Z,1.00
2017-06-29T17:30:22.895Z,0.90
2017-06-29T17:32:50.364Z,0.90
2017-06-29T17:35:17.934Z,0.90
2017-06-29T17:37:45.429Z,0.90
2017-06-29T17:40:12.839Z,0.90
2017-06-29T17:42:40.281Z,0.90
2017-06-29T17:45:07.742Z,1.27
2017-06-29T17:47:35.181Z,1.03
2017-06-29T17:50:02.623Z,0.93
2017-06-29T17:52:30.078Z,1.10
2017-06-29T17:54:57.525Z,1.10
2017-06-29T17:57:24.958Z,1.10
2017-06-29T17:59:52.413Z,1.00
2017-06-29T18:02:19.841Z,0.90
2017-06-29T18:04:47.273Z,1.20
2017-06-29T18:07:24.511Z,1.00
2017-06-29T18:09:55.885Z,1.03
2017-06-29T18:12:23.372Z,0.97
2017-06-29T18:14:50.806Z,1.00
2017-06-29T18:17:18.271Z,1.03
2017-06-29T18:19:45.699Z,1.17
2017-06-29T18:22:13.113Z,1.00
2017-06-29T18:24:40.563Z,1.90
2017-06-29T18:27:09.899Z,3.27
2017-06-29T18:29:37.350Z,4.97
2017-06-29T18:32:04.796Z,1.70
2017-06-29T18:34:32.235Z,1.03
2017-06-29T18:36:59.704Z,1.20
2017-06-29T18:39:27.135Z,0.80
2017-06-29T18:41:54.559Z,0.90
2017-06-29T18:44:22.068Z,1.17
2017-06-29T18:46:49.477Z,0.90
2017-06-29T18:49:17.572Z,1.00
2017-06-29T18:51:45.068Z,0.97
2017-06-29T18:54:12.808Z,1.10
2017-06-29T18:56:40.220Z,0.90
2017-06-29T18:59:07.762Z,1.00
2017-06-29T19:01:35.184Z,1.00
2017-06-29T19:04:02.605Z,0.90
2017-06-29T19:06:30.224Z,1.10
2017-06-29T19:08:57.764Z,1.13
2017-06-29T19:11:25.200Z,1.00
2017-06-29T19:13:52.987Z,0.90
2017-06-29T19:16:20.447Z,0.97
2017-06-29T19:18:48.276Z,1.00
2017-06-29T19:21:15.829Z,1.13
2017-06-29T19:23:43.264Z,0.90
2017-06-29T19:26:10.805Z,1.10
2017-06-29T19:28:38.273Z,1.10
2017-06-29T19:31:05.798Z,1.20
2017-06-29T19:33:33.283Z,1.13
2017-06-29T19:36:00.713Z,1.07
2017-06-29T19:38:28.212Z,0.93
2017-06-29T19:40:57.169Z,1.00
2017-06-29T19:43:24.572Z,0.80
2017-06-29T19:45:52.007Z,1.03
2017-06-29T19:48:19.454Z,1.30
2017-06-29T19:50:46.898Z,1.10
2017-06-29T19:53:14.304Z,1.20
2017-06-29T19:55:41.718Z,0.97
2017-06-29T19:58:09.149Z,1.30
2017-06-29T20:00:36.565Z,1.30
2017-06-29T20:03:03.996Z,1.00
2017-06-29T20:05:32.164Z,2.03
2017-06-29T20:07:59.620Z,1.57
2017-06-29T20:10:27.067Z,1.27
2017-06-29T20:12:54.501Z,0.90
2017-06-29T20:15:22.029Z,1.27
2017-06-29T20:17:49.447Z,1.00
2017-06-29T20:20:16.894Z,1.10
2017-06-29T20:22:44.305Z,1.10
2017-06-29T20:25:11.747Z,1.00
2017-06-29T20:27:39.165Z,1.27
2017-06-29T20:30:06.640Z,1.10
2017-06-29T20:32:34.055Z,1.10
2017-06-29T20:35:01.455Z,0.90
2017-06-29T20:37:28.905Z,1.03
2017-06-29T20:39:56.320Z,1.20
2017-06-29T20:42:23.743Z,1.67
2017-06-29T20:44:51.180Z,1.20
2017-06-29T20:47:18.600Z,1.23
2017-06-29T20:49:46.097Z,1.20
2017-06-29T20:52:13.510Z,1.43
2017-06-29T20:54:40.927Z,1.20
2017-06-29T20:57:08.355Z,1.00
2017-06-29T20:59:35.779Z,1.20
2017-06-29T21:02:03.233Z,1.20
2017-06-29T21:04:30.663Z,1.07
2017-06-29T21:06:58.091Z,1.20
2017-06-29T21:09:25.640Z,1.10
2017-06-29T21:11:53.072Z,1.00
2017-06-29T21:14:20.531Z,1.30
2017-06-29T21:16:47.938Z,1.30
2017-06-29T21:19:15.389Z,1.20
2017-06-29T21:21:42.798Z,1.00
2017-06-29T21:24:10.236Z,1.53
2017-06-29T21:26:37.687Z,1.03
2017-06-29T21:29:05.189Z,1.10
2017-06-29T21:31:32.631Z,0.90
2017-06-29T21:34:00.045Z,0.90
2017-06-29T21:36:27.464Z,1.20
2017-06-29T21:38:54.939Z,1.23
2017-06-29T21:41:22.354Z,1.20
2017-06-29T21:43:49.804Z,0.90
2017-06-29T21:46:17.236Z,1.13
2017-06-29T21:48:44.672Z,0.83
2017-06-29T21:51:12.106Z,1.10
2017-06-29T21:53:39.519Z,1.17
2017-06-29T21:56:06.963Z,1.03
2017-06-29T21:58:34.414Z,1.23
2017-06-29T22:01:01.841Z,0.90
2017-06-29T22:03:29.940Z,0.80
2017-06-29T22:05:57.387Z,0.80
2017-06-29T22:08:24.799Z,1.17
2017-06-29T22:10:52.249Z,1.00
2017-06-29T22:13:19.655Z,0.97
2017-06-29T22:15:47.072Z,0.83
2017-06-29T22:18:14.531Z,0.90
2017-06-29T22:20:42.043Z,0.90
2017-06-29T22:23:09.481Z,0.90
2017-06-29T22:25:36.928Z,0.80
2017-06-29T22:28:04.327Z,0.90
2017-06-29T22:30:31.760Z,0.80
2017-06-29T22:32:59.173Z,0.80
2017-06-29T22:35:26.628Z,0.90
2017-06-29T22:37:54.078Z,0.80
2017-06-29T22:40:21.551Z,1.00
2017-06-29T22:42:48.959Z,0.87
2017-06-29T22:45:16.364Z,0.80
2017-06-29T22:47:43.803Z,0.77
2017-06-29T22:50:11.292Z,0.90
2017-06-29T22:52:38.714Z,0.80
2017-06-29T22:55:06.135Z,1.00
2017-06-29T22:57:33.591Z,0.80
2017-06-29T23:00:01.020Z,0.70
2017-06-29T23:02:28.426Z,0.83
2017-06-29T23:04:55.859Z,0.80
2017-06-29T23:07:23.271Z,0.90
2017-06-29T23:09:50.726Z,0.97
2017-06-29T23:12:18.152Z,0.70
2017-06-29T23:14:45.548Z,0.80
2017-06-29T23:17:13.001Z,0.90
2017-06-29T23:19:40.436Z,0.90
2017-06-29T23:22:07.835Z,0.80
2017-06-29T23:24:35.282Z,0.80
2017-06-29T23:27:02.719Z,0.90
2017-06-29T23:29:30.144Z,0.70
2017-06-29T23:31:57.552Z,0.83
2017-06-29T23:34:25.070Z,1.00
2017-06-29T23:36:52.471Z,1.10
2017-06-29T23:39:19.983Z,0.83
2017-06-29T23:41:47.436Z,0.80
2017-06-29T23:44:14.874Z,0.80
2017-06-29T23:46:42.287Z,0.83
2017-06-29T23:49:09.691Z,0.77
2017-06-29T23:51:37.180Z,0.90
2017-06-29T23:54:04.576Z,0.83
2017-06-29T23:56:32.014Z,0.77
2017-06-29T23:58:59.424Z,0.80
